sensor_id;sensor_type;location;lat;lon;timestamp;pressure;altitude;pressure_sealevel;temperature;humidity
4576;BME280;2300;51.874;8.430;2023-04-01T00:01:04;98612.34;;;9.34;100.00
4576;BME280;2300;51.874;8.430;2023-04-01T00:03:31;98617.81;;;9.39;100.00
4576;BME280;2300;51.874;8.430;2023-04-01T00:05:59;98599.47;;;9.29;100.00
4576;BME280;2300;51.874;8.430;2023-04-01T00:08:27;98603.31;;;9.38;100.00
4576;BME280;2300;51.874;8.430;2023-04-01T00:10:54;98604.97;;;9.34;100.00
4576;BME280;2300;51.874;8.430;2023-04-01T00:13:22;98616.72;;;9.55;100.00
4576;BME280;2300;51.874;8.430;2023-04-01T00:15:50;98618.38;;;9.51;100.00
4576;BME280;2300;51.874;8.430;2023-04-01T00:18:17;98615.38;;;9.42;100.00
4576;BME280;2300;51.874;8.430;2023-04-01T00:20:44;98614.25;;;9.38;100.00
4576;BME280;2300;51.874;8.430;2023-04-01T00:23:12;98612.66;;;9.42;100.00
4576;BME280;2300;51.874;8.430;2023-04-01T00:25:39;98613.16;;;9.49;99.98
4576;BME280;2300;51.874;8.430;2023-04-01T00:28:05;98613.72;;;9.46;100.00
4576;BME280;2300;51.874;8.430;2023-04-01T00:30:32;98605.25;;;9.48;98.85
4576;BME280;2300;51.874;8.430;2023-04-01T00:32:59;98590.16;;;9.35;99.66
4576;BME280;2300;51.874;8.430;2023-04-01T00:35:25;98602.19;;;9.54;98.78
4576;BME280;2300;51.874;8.430;2023-04-01T00:37:52;98602.50;;;9.53;98.84
4576;BME280;2300;51.874;8.430;2023-04-01T00:40:26;98598.94;;;9.47;98.68
4576;BME280;2300;51.874;8.430;2023-04-01T00:42:53;98589.63;;;9.58;98.45
4576;BME280;2300;51.874;8.430;2023-04-01T00:45:30;98588.50;;;9.54;98.16
4576;BME280;2300;51.874;8.430;2023-04-01T00:47:59;98588.25;;;9.56;97.96
4576;BME280;2300;51.874;8.430;2023-04-01T00:50:28;98600.59;;;9.58;98.54
4576;BME280;2300;51.874;8.430;2023-04-01T00:52:58;98597.03;;;9.53;97.39
4576;BME280;2300;51.874;8.430;2023-04-01T00:55:27;98585.78;;;9.49;96.90
4576;BME280;2300;51.874;8.430;2023-04-01T00:57:57;98561.13;;;9.34;97.00
4576;BME280;2300;51.874;8.430;2023-04-01T01:00:24;98589.63;;;9.58;96.40
4576;BME280;2300;51.874;8.430;2023-04-01T01:02:51;98586.88;;;9.58;96.51
4576;BME280;2300;51.874;8.430;2023-04-01T01:05:22;98579.78;;;9.42;97.11
4576;BME280;2300;51.874;8.430;2023-04-01T01:08:01;98589.91;;;9.47;96.73
4576;BME280;2300;51.874;8.430;2023-04-01T01:10:32;98594.56;;;9.51;96.91
4576;BME280;2300;51.874;8.430;2023-04-01T01:13:04;98586.59;;;9.50;96.63
4576;BME280;2300;51.874;8.430;2023-04-01T01:15:37;98589.59;;;9.48;96.78
4576;BME280;2300;51.874;8.430;2023-04-01T01:18:15;98592.34;;;9.48;97.36
4576;BME280;2300;51.874;8.430;2023-04-01T01:23:57;98579.78;;;9.47;97.31
4576;BME280;2300;51.874;8.430;2023-04-01T01:26:53;98582.50;;;9.42;97.30
4576;BME280;2300;51.874;8.430;2023-04-01T01:29:34;98580.03;;;9.41;97.36
4576;BME280;2300;51.874;8.430;2023-04-01T01:32:14;98580.88;;;9.31;97.85
4576;BME280;2300;51.874;8.430;2023-04-01T01:34:49;98583.88;;;9.35;98.24
4576;BME280;2300;51.874;8.430;2023-04-01T01:37:23;98587.44;;;9.40;98.10
4576;BME280;2300;51.874;8.430;2023-04-01T01:39:55;98572.66;;;9.21;98.55
4576;BME280;2300;51.874;8.430;2023-04-01T01:42:24;98583.34;;;9.38;99.28
4576;BME280;2300;51.874;8.430;2023-04-01T01:44:53;98583.31;;;9.18;99.27
4576;BME280;2300;51.874;8.430;2023-04-01T01:47:22;98581.13;;;9.30;99.64
4576;BME280;2300;51.874;8.430;2023-04-01T01:49:51;98577.31;;;9.21;100.00
4576;BME280;2300;51.874;8.430;2023-04-01T01:52:19;98574.84;;;9.19;100.00
4576;BME280;2300;51.874;8.430;2023-04-01T01:54:48;98579.78;;;9.12;100.00
4576;BME280;2300;51.874;8.430;2023-04-01T01:57:16;98578.66;;;9.08;100.00
4576;BME280;2300;51.874;8.430;2023-04-01T01:59:46;98576.50;;;9.20;100.00
4576;BME280;2300;51.874;8.430;2023-04-01T02:02:14;98574.56;;;9.15;100.00
4576;BME280;2300;51.874;8.430;2023-04-01T02:04:43;98576.50;;;9.20;100.00
4576;BME280;2300;51.874;8.430;2023-04-01T02:07:14;98571.56;;;9.17;99.86
4576;BME280;2300;51.874;8.430;2023-04-01T02:09:42;98565.53;;;9.10;99.78
4576;BME280;2300;51.874;8.430;2023-04-01T02:12:12;98572.91;;;9.25;99.36
4576;BME280;2300;51.874;8.430;2023-04-01T02:14:44;98574.84;;;9.19;99.49
4576;BME280;2300;51.874;8.430;2023-04-01T02:17:14;98575.94;;;9.18;99.01
4576;BME280;2300;51.874;8.430;2023-04-01T02:19:47;98570.44;;;9.18;98.94
4576;BME280;2300;51.874;8.430;2023-04-01T02:22:18;98572.66;;;9.21;98.79
4576;BME280;2300;51.874;8.430;2023-04-01T02:24:46;98568.81;;;9.32;98.60
4576;BME280;2300;51.874;8.430;2023-04-01T02:27:16;98563.88;;;9.19;97.51
4576;BME280;2300;51.874;8.430;2023-04-01T02:29:43;98573.75;;;9.30;97.80
4576;BME280;2300;51.874;8.430;2023-04-01T02:32:09;98573.75;;;9.35;96.95
4576;BME280;2300;51.874;8.430;2023-04-01T02:34:36;98574.00;;;9.39;97.55
4576;BME280;2300;51.874;8.430;2023-04-01T02:37:03;98579.50;;;9.24;97.30
4576;BME280;2300;51.874;8.430;2023-04-01T02:39:30;98566.63;;;9.29;97.22
4576;BME280;2300;51.874;8.430;2023-04-01T02:41:56;98561.69;;;9.26;96.90
4576;BME280;2300;51.874;8.430;2023-04-01T02:44:24;98569.66;;;9.33;96.44
4576;BME280;2300;51.874;8.430;2023-04-01T02:46:50;98569.66;;;9.33;96.52
4576;BME280;2300;51.874;8.430;2023-04-01T02:49:17;98566.34;;;9.36;96.31
4576;BME280;2300;51.874;8.430;2023-04-01T02:51:44;98574.81;;;9.39;95.86
4576;BME280;2300;51.874;8.430;2023-04-01T02:54:10;98574.81;;;9.39;95.84
4576;BME280;2300;51.874;8.430;2023-04-01T02:56:37;98572.63;;;9.51;95.96
4576;BME280;2300;51.874;8.430;2023-04-01T02:59:03;98576.47;;;9.30;96.15
4576;BME280;2300;51.874;8.430;2023-04-01T03:01:31;98574.31;;;9.37;96.98
4576;BME280;2300;51.874;8.430;2023-04-01T03:03:58;98577.03;;;9.32;96.58
4576;BME280;2300;51.874;8.430;2023-04-01T03:06:24;98581.97;;;9.30;97.09
4576;BME280;2300;51.874;8.430;2023-04-01T03:08:50;98575.66;;;9.30;96.32
4576;BME280;2300;51.874;8.430;2023-04-01T03:11:17;98579.78;;;9.27;97.34
4576;BME280;2300;51.874;8.430;2023-04-01T03:13:43;98584.13;;;9.28;97.46
4576;BME280;2300;51.874;8.430;2023-04-01T03:16:10;98577.03;;;9.17;98.16
4576;BME280;2300;51.874;8.430;2023-04-01T03:18:38;98588.00;;;9.17;98.87
4576;BME280;2300;51.874;8.430;2023-04-01T03:23:41;98586.88;;;9.18;99.82
4576;BME280;2300;51.874;8.430;2023-04-01T03:26:08;98586.63;;;9.25;99.95
4576;BME280;2300;51.874;8.430;2023-04-01T03:28:34;98582.53;;;9.22;99.59
4576;BME280;2300;51.874;8.430;2023-04-01T03:31:01;98589.09;;;9.21;100.00
4576;BME280;2300;51.874;8.430;2023-04-01T03:33:27;98587.44;;;9.20;100.00
4576;BME280;2300;51.874;8.430;2023-04-01T03:35:55;98588.53;;;9.24;99.86
4576;BME280;2300;51.874;8.430;2023-04-01T03:38:21;98588.25;;;9.26;99.72
4576;BME280;2300;51.874;8.430;2023-04-01T03:40:48;98583.06;;;9.14;100.00
4576;BME280;2300;51.874;8.430;2023-04-01T03:43:14;98581.41;;;9.13;100.00
4576;BME280;2300;51.874;8.430;2023-04-01T03:45:43;98588.53;;;9.14;99.78
4576;BME280;2300;51.874;8.430;2023-04-01T03:48:10;98591.25;;;9.09;100.00
4576;BME280;2300;51.874;8.430;2023-04-01T03:50:36;98592.09;;;9.14;100.00
4576;BME280;2300;51.874;8.430;2023-04-01T03:53:04;98587.44;;;9.10;100.00
4576;BME280;2300;51.874;8.430;2023-04-01T03:55:31;98580.88;;;9.06;100.00
4576;BME280;2300;51.874;8.430;2023-04-01T03:57:57;98589.59;;;9.03;100.00
4576;BME280;2300;51.874;8.430;2023-04-01T04:00:24;98588.53;;;9.09;100.00
4576;BME280;2300;51.874;8.430;2023-04-01T04:02:51;98592.34;;;9.13;100.00
4576;BME280;2300;51.874;8.430;2023-04-01T04:05:17;98585.53;;;9.10;100.00
4576;BME280;2300;51.874;8.430;2023-04-01T04:07:44;98590.75;;;9.17;100.00
4576;BME280;2300;51.874;8.430;2023-04-01T04:10:11;98588.78;;;9.07;100.00
4576;BME280;2300;51.874;8.430;2023-04-01T04:12:38;98591.81;;;9.06;100.00
4576;BME280;2300;51.874;8.430;2023-04-01T04:15:06;98588.53;;;9.04;100.00
4576;BME280;2300;51.874;8.430;2023-04-01T04:17:33;98596.72;;;8.99;100.00
4576;BME280;2300;51.874;8.430;2023-04-01T04:20:00;98601.13;;;9.05;100.00
4576;BME280;2300;51.874;8.430;2023-04-01T04:22:27;98600.03;;;9.01;100.00
4576;BME280;2300;51.874;8.430;2023-04-01T04:24:53;98594.00;;;8.94;100.00
4576;BME280;2300;51.874;8.430;2023-04-01T04:27:21;98594.81;;;8.89;100.00
4576;BME280;2300;51.874;8.430;2023-04-01T04:29:47;98601.09;;;8.90;100.00
4576;BME280;2300;51.874;8.430;2023-04-01T04:32:14;98600.28;;;8.89;100.00
4576;BME280;2300;51.874;8.430;2023-04-01T04:34:40;98597.78;;;8.83;100.00
4576;BME280;2300;51.874;8.430;2023-04-01T04:37:07;98598.91;;;8.87;100.00
4576;BME280;2300;51.874;8.430;2023-04-01T04:39:33;98586.00;;;8.67;100.00
4576;BME280;2300;51.874;8.430;2023-04-01T04:42:00;98594.50;;;8.70;100.00
4576;BME280;2300;51.874;8.430;2023-04-01T04:44:27;98596.97;;;8.77;100.00
4576;BME280;2300;51.874;8.430;2023-04-01T04:46:54;98598.63;;;8.83;100.00
4576;BME280;2300;51.874;8.430;2023-04-01T04:49:20;98601.09;;;8.80;100.00
4576;BME280;2300;51.874;8.430;2023-04-01T04:51:47;98599.38;;;8.63;100.00
4576;BME280;2300;51.874;8.430;2023-04-01T04:54:13;98610.63;;;8.67;100.00
4576;BME280;2300;51.874;8.430;2023-04-01T04:56:40;98608.16;;;8.65;100.00
4576;BME280;2300;51.874;8.430;2023-04-01T04:59:07;98608.72;;;8.67;100.00
4576;BME280;2300;51.874;8.430;2023-04-01T05:01:34;98590.03;;;8.49;100.00
4576;BME280;2300;51.874;8.430;2023-04-01T05:04:01;98609.22;;;8.59;100.00
4576;BME280;2300;51.874;8.430;2023-04-01T05:06:27;98621.88;;;8.76;100.00
4576;BME280;2300;51.874;8.430;2023-04-01T05:08:55;98597.94;;;8.46;100.00
4576;BME280;2300;51.874;8.430;2023-04-01T05:11:22;98618.53;;;8.63;100.00
4576;BME280;2300;51.874;8.430;2023-04-01T05:13:48;98623.44;;;8.61;100.00
4576;BME280;2300;51.874;8.430;2023-04-01T05:16:16;98617.69;;;8.58;100.00
4576;BME280;2300;51.874;8.430;2023-04-01T05:18:45;98623.41;;;8.56;100.00
4576;BME280;2300;51.874;8.430;2023-04-01T05:21:12;98629.97;;;8.55;100.00
4576;BME280;2300;51.874;8.430;2023-04-01T05:23:40;98629.97;;;8.55;100.00
4576;BME280;2300;51.874;8.430;2023-04-01T05:26:08;98629.72;;;8.62;100.00
4576;BME280;2300;51.874;8.430;2023-04-01T05:28:35;98640.91;;;8.55;100.00
4576;BME280;2300;51.874;8.430;2023-04-01T05:31:04;98633.03;;;8.64;100.00
4576;BME280;2300;51.874;8.430;2023-04-01T05:33:30;98636.66;;;8.75;100.00
4576;BME280;2300;51.874;8.430;2023-04-01T05:36:05;98636.34;;;8.71;100.00
4576;BME280;2300;51.874;8.430;2023-04-01T05:38:32;98641.81;;;8.76;100.00
4576;BME280;2300;51.874;8.430;2023-04-01T05:40:59;98630.63;;;8.72;100.00
4576;BME280;2300;51.874;8.430;2023-04-01T05:43:25;98639.91;;;8.77;100.00
4576;BME280;2300;51.874;8.430;2023-04-01T05:45:52;98635.28;;;8.77;100.00
4576;BME280;2300;51.874;8.430;2023-04-01T05:48:18;98641.03;;;8.76;100.00
4576;BME280;2300;51.874;8.430;2023-04-01T05:50:45;98644.56;;;8.76;100.00
4576;BME280;2300;51.874;8.430;2023-04-01T05:53:12;98648.94;;;8.67;100.00
4576;BME280;2300;51.874;8.430;2023-04-01T05:55:39;98655.97;;;8.58;100.00
4576;BME280;2300;51.874;8.430;2023-04-01T05:58:05;98648.13;;;8.71;100.00
4576;BME280;2300;51.874;8.430;2023-04-01T06:00:32;98650.88;;;8.82;100.00
4576;BME280;2300;51.874;8.430;2023-04-01T06:02:59;98652.56;;;8.98;100.00
4576;BME280;2300;51.874;8.430;2023-04-01T06:05:28;98658.63;;;9.10;100.00
4576;BME280;2300;51.874;8.430;2023-04-01T06:07:58;98654.78;;;9.06;100.00
4576;BME280;2300;51.874;8.430;2023-04-01T06:10:36;98651.22;;;8.95;100.00
4576;BME280;2300;51.874;8.430;2023-04-01T06:13:09;98659.13;;;8.97;100.00
4576;BME280;2300;51.874;8.430;2023-04-01T06:15:40;98655.03;;;8.94;100.00
4576;BME280;2300;51.874;8.430;2023-04-01T06:21:26;98670.66;;;9.04;100.00
4576;BME280;2300;51.874;8.430;2023-04-01T06:24:07;98668.16;;;8.92;100.00
4576;BME280;2300;51.874;8.430;2023-04-01T06:26:45;98667.31;;;8.92;100.00
4576;BME280;2300;51.874;8.430;2023-04-01T06:29:32;98677.75;;;8.95;100.00
4576;BME280;2300;51.874;8.430;2023-04-01T06:32:28;98679.69;;;9.09;100.00
4576;BME280;2300;51.874;8.430;2023-04-01T06:35:17;98678.88;;;9.19;100.00
4576;BME280;2300;51.874;8.430;2023-04-01T06:37:58;98679.44;;;9.16;100.00
4576;BME280;2300;51.874;8.430;2023-04-01T06:40:42;98684.09;;;9.15;100.00
4576;BME280;2300;51.874;8.430;2023-04-01T06:43:20;98676.41;;;9.18;100.00
4576;BME280;2300;51.874;8.430;2023-04-01T06:45:52;98673.41;;;9.14;100.00
4576;BME280;2300;51.874;8.430;2023-04-01T06:48:33;98679.44;;;9.16;100.00
4576;BME280;2300;51.874;8.430;2023-04-01T06:51:15;98686.81;;;9.10;100.00
4576;BME280;2300;51.874;8.430;2023-04-01T06:53:53;98677.78;;;9.15;100.00
4576;BME280;2300;51.874;8.430;2023-04-01T06:56:24;98687.69;;;9.31;100.00
4576;BME280;2300;51.874;8.430;2023-04-01T06:58:56;98676.97;;;9.20;100.00
4576;BME280;2300;51.874;8.430;2023-04-01T07:01:28;98687.38;;;9.28;100.00
4576;BME280;2300;51.874;8.430;2023-04-01T07:04:00;98690.13;;;9.28;100.00
4576;BME280;2300;51.874;8.430;2023-04-01T07:06:31;98693.97;;;9.32;100.00
4576;BME280;2300;51.874;8.430;2023-04-01T07:09:00;98698.66;;;9.41;100.00
4576;BME280;2300;51.874;8.430;2023-04-01T07:11:31;98687.97;;;9.50;100.00
4576;BME280;2300;51.874;8.430;2023-04-01T07:14:01;98689.34;;;9.52;100.00
4576;BME280;2300;51.874;8.430;2023-04-01T07:16:31;98698.66;;;9.51;100.00
4576;BME280;2300;51.874;8.430;2023-04-01T07:19:02;98697.84;;;9.66;100.00
4576;BME280;2300;51.874;8.430;2023-04-01T07:21:35;98700.31;;;9.83;100.00
4576;BME280;2300;51.874;8.430;2023-04-01T07:24:06;98706.03;;;9.86;100.00
4576;BME280;2300;51.874;8.430;2023-04-01T07:26:35;98703.03;;;9.98;100.00
4576;BME280;2300;51.874;8.430;2023-04-01T07:29:05;98701.38;;;9.97;100.00
4576;BME280;2300;51.874;8.430;2023-04-01T07:31:49;98703.56;;;9.85;100.00
4576;BME280;2300;51.874;8.430;2023-04-01T07:34:23;98706.88;;;9.77;100.00
4576;BME280;2300;51.874;8.430;2023-04-01T07:36:54;98709.59;;;9.92;100.00
4576;BME280;2300;51.874;8.430;2023-04-01T07:39:34;98713.44;;;9.81;100.00
4576;BME280;2300;51.874;8.430;2023-04-01T07:42:08;98716.19;;;9.86;100.00
4576;BME280;2300;51.874;8.430;2023-04-01T07:44:48;98714.25;;;9.91;100.00
4576;BME280;2300;51.874;8.430;2023-04-01T07:47:26;98719.22;;;9.84;100.00
4576;BME280;2300;51.874;8.430;2023-04-01T07:50:09;98719.22;;;9.89;100.00
4576;BME280;2300;51.874;8.430;2023-04-01T07:52:44;98730.44;;;10.03;100.00
4576;BME280;2300;51.874;8.430;2023-04-01T07:55:16;98726.63;;;9.99;100.00
4576;BME280;2300;51.874;8.430;2023-04-01T07:57:51;98733.75;;;10.10;100.00
4576;BME280;2300;51.874;8.430;2023-04-01T08:00:25;98736.50;;;9.95;100.00
4576;BME280;2300;51.874;8.430;2023-04-01T08:03:06;98732.94;;;9.99;100.00
4576;BME280;2300;51.874;8.430;2023-04-01T08:05:41;98727.44;;;9.94;100.00
4576;BME280;2300;51.874;8.430;2023-04-01T08:08:13;98746.31;;;10.16;100.00
4576;BME280;2300;51.874;8.430;2023-04-01T08:10:46;98749.38;;;10.30;100.00
4576;BME280;2300;51.874;8.430;2023-04-01T08:13:22;98738.66;;;10.33;100.00
4576;BME280;2300;51.874;8.430;2023-04-01T08:15:57;98747.94;;;10.42;100.00
4576;BME280;2300;51.874;8.430;2023-04-01T08:18:34;98757.81;;;10.59;100.00
4576;BME280;2300;51.874;8.430;2023-04-01T08:21:05;98749.31;;;10.50;100.00
4576;BME280;2300;51.874;8.430;2023-04-01T08:23:37;98764.16;;;10.34;99.73
4576;BME280;2300;51.874;8.430;2023-04-01T08:26:12;98766.63;;;10.51;100.00
4576;BME280;2300;51.874;8.430;2023-04-01T08:28:44;98768.25;;;10.36;100.00
4576;BME280;2300;51.874;8.430;2023-04-01T08:31:16;98729.63;;;10.23;100.00
4576;BME280;2300;51.874;8.430;2023-04-01T08:33:46;98766.81;;;10.74;100.00
4576;BME280;2300;51.874;8.430;2023-04-01T08:36:15;98769.72;;;11.08;100.00
4576;BME280;2300;51.874;8.430;2023-04-01T08:38:44;98759.19;;;11.20;99.11
4576;BME280;2300;51.874;8.430;2023-04-01T08:41:25;98764.91;;;11.34;98.36
4576;BME280;2300;51.874;8.430;2023-04-01T08:44:04;98750.31;;;11.39;97.50
4576;BME280;2300;51.874;8.430;2023-04-01T08:46:58;98772.88;;;11.31;95.52
4576;BME280;2300;51.874;8.430;2023-04-01T08:49:56;98767.09;;;11.37;93.94
4576;BME280;2300;51.874;8.430;2023-04-01T08:52:33;98775.53;;;11.46;94.57
4576;BME280;2300;51.874;8.430;2023-04-01T08:55:22;98773.25;;;11.19;94.51
4576;BME280;2300;51.874;8.430;2023-04-01T08:58:16;98761.59;;;10.83;95.17
4576;BME280;2300;51.874;8.430;2023-04-01T09:00:51;98768.44;;;10.80;97.19
4576;BME280;2300;51.874;8.430;2023-04-01T09:03:52;98783.53;;;10.88;97.88
4576;BME280;2300;51.874;8.430;2023-04-01T09:06:39;98785.72;;;10.91;99.80
4576;BME280;2300;51.874;8.430;2023-04-01T09:09:30;98788.44;;;10.91;100.00
4576;BME280;2300;51.874;8.430;2023-04-01T09:12:19;98789.00;;;10.93;100.00
4576;BME280;2300;51.874;8.430;2023-04-01T09:15:07;98788.16;;;10.98;100.00
4576;BME280;2300;51.874;8.430;2023-04-01T09:18:17;98791.19;;;10.96;99.99
4576;BME280;2300;51.874;8.430;2023-04-01T09:21:10;98789.25;;;10.97;99.57
4576;BME280;2300;51.874;8.430;2023-04-01T09:23:52;98794.72;;;11.02;99.38
4576;BME280;2300;51.874;8.430;2023-04-01T09:26:33;98797.13;;;11.18;99.08
4576;BME280;2300;51.874;8.430;2023-04-01T09:29:17;98797.00;;;11.44;98.52
4576;BME280;2300;51.874;8.430;2023-04-01T09:31:58;98801.31;;;11.60;98.68
4576;BME280;2300;51.874;8.430;2023-04-01T09:34:39;98799.06;;;11.72;98.79
4576;BME280;2300;51.874;8.430;2023-04-01T09:37:20;98809.50;;;11.75;97.14
4576;BME280;2300;51.874;8.430;2023-04-01T09:40:15;98812.34;;;11.99;97.07
4576;BME280;2300;51.874;8.430;2023-04-01T09:42:44;98814.41;;;11.78;95.36
4576;BME280;2300;51.874;8.430;2023-04-01T09:45:24;98813.59;;;11.78;96.88
4576;BME280;2300;51.874;8.430;2023-04-01T09:48:03;98816.44;;;11.62;96.61
4576;BME280;2300;51.874;8.430;2023-04-01T09:50:36;98818.41;;;11.47;97.02
4576;BME280;2300;51.874;8.430;2023-04-01T09:53:19;98822.75;;;11.63;97.98
4576;BME280;2300;51.874;8.430;2023-04-01T09:59:28;98824.97;;;11.51;98.42
4576;BME280;2300;51.874;8.430;2023-04-01T10:05:30;98828.81;;;12.04;98.27
4576;BME280;2300;51.874;8.430;2023-04-01T10:11:19;98834.69;;;11.87;97.32
4576;BME280;2300;51.874;8.430;2023-04-01T10:14:16;98832.34;;;12.09;97.90
4576;BME280;2300;51.874;8.430;2023-04-01T10:17:00;98840.28;;;12.16;97.34
4576;BME280;2300;51.874;8.430;2023-04-01T10:20:06;98839.78;;;12.09;96.60
4576;BME280;2300;51.874;8.430;2023-04-01T10:25:37;98835.06;;;12.15;94.52
4576;BME280;2300;51.874;8.430;2023-04-01T10:28:25;98836.63;;;12.26;94.49
4576;BME280;2300;51.874;8.430;2023-04-01T10:31:18;98842.75;;;12.18;93.61
4576;BME280;2300;51.874;8.430;2023-04-01T10:34:05;98850.63;;;12.29;94.98
4576;BME280;2300;51.874;8.430;2023-04-01T10:36:50;98853.19;;;12.21;95.56
4576;BME280;2300;51.874;8.430;2023-04-01T10:39:51;98850.84;;;12.38;95.20
4576;BME280;2300;51.874;8.430;2023-04-01T10:42:52;98845.75;;;12.21;93.45
4576;BME280;2300;51.874;8.430;2023-04-01T10:45:43;98847.44;;;12.17;94.13
4576;BME280;2300;51.874;8.430;2023-04-01T10:48:23;98854.56;;;11.79;95.05
4576;BME280;2300;51.874;8.430;2023-04-01T10:51:10;98847.41;;;11.78;96.57
4576;BME280;2300;51.874;8.430;2023-04-01T10:56:49;98851.34;;;11.57;97.77
4576;BME280;2300;51.874;8.430;2023-04-01T10:59:42;98864.78;;;11.68;98.27
4576;BME280;2300;51.874;8.430;2023-04-01T11:02:52;98866.75;;;11.53;95.65
4576;BME280;2300;51.874;8.430;2023-04-01T11:12:02;98868.56;;;11.83;99.64
4576;BME280;2300;51.874;8.430;2023-04-01T11:15:07;98869.41;;;11.78;99.51
4576;BME280;2300;51.874;8.430;2023-04-01T11:18:18;98873.19;;;11.87;99.02
4576;BME280;2300;51.874;8.430;2023-04-01T11:21:14;98873.03;;;12.18;100.00
4576;BME280;2300;51.874;8.430;2023-04-01T11:23:51;98873.47;;;12.30;99.90
4576;BME280;2300;51.874;8.430;2023-04-01T11:26:32;98879.22;;;12.33;98.50
4576;BME280;2300;51.874;8.430;2023-04-01T11:29:30;98889.22;;;12.58;97.67
4576;BME280;2300;51.874;8.430;2023-04-01T11:32:07;98887.56;;;12.57;96.22
4576;BME280;2300;51.874;8.430;2023-04-01T11:34:56;98893.38;;;12.17;97.65
4576;BME280;2300;51.874;8.430;2023-04-01T11:37:35;98884.72;;;11.94;98.58
4576;BME280;2300;51.874;8.430;2023-04-01T11:40:11;98897.91;;;11.92;99.42
4576;BME280;2300;51.874;8.430;2023-04-01T11:42:44;98891.22;;;12.08;99.91
4576;BME280;2300;51.874;8.430;2023-04-01T11:45:21;98886.00;;;12.12;98.30
4576;BME280;2300;51.874;8.430;2023-04-01T11:48:15;98900.06;;;12.05;97.55
4576;BME280;2300;51.874;8.430;2023-04-01T11:51:05;98901.50;;;11.93;98.83
4576;BME280;2300;51.874;8.430;2023-04-01T11:53:44;98910.88;;;12.31;99.12
4576;BME280;2300;51.874;8.430;2023-04-01T11:56:26;98904.41;;;12.50;98.12
4576;BME280;2300;51.874;8.430;2023-04-01T11:59:31;98902.44;;;12.56;97.92
4576;BME280;2300;51.874;8.430;2023-04-01T12:02:09;98910.03;;;12.69;97.82
4576;BME280;2300;51.874;8.430;2023-04-01T12:05:02;98908.63;;;13.06;97.77
4576;BME280;2300;51.874;8.430;2023-04-01T12:07:55;98909.13;;;13.08;94.90
4576;BME280;2300;51.874;8.430;2023-04-01T12:10:34;98907.84;;;12.66;95.26
4576;BME280;2300;51.874;8.430;2023-04-01T12:13:09;98918.53;;;12.39;96.07
4576;BME280;2300;51.874;8.430;2023-04-01T12:15:51;98923.91;;;11.71;97.07
4576;BME280;2300;51.874;8.430;2023-04-01T12:18:23;98898.47;;;11.25;99.34
4576;BME280;2300;51.874;8.430;2023-04-01T12:20:57;98922.88;;;11.42;100.00
4576;BME280;2300;51.874;8.430;2023-04-01T12:23:41;98928.91;;;11.44;100.00
4576;BME280;2300;51.874;8.430;2023-04-01T12:26:35;98936.59;;;11.42;100.00
4576;BME280;2300;51.874;8.430;2023-04-01T12:29:21;98933.59;;;11.43;100.00
4576;BME280;2300;51.874;8.430;2023-04-01T12:31:53;98943.13;;;11.66;100.00
4576;BME280;2300;51.874;8.430;2023-04-01T12:37:19;98947.91;;;12.04;100.00
4576;BME280;2300;51.874;8.430;2023-04-01T12:39:59;98948.78;;;12.00;99.27
4576;BME280;2300;51.874;8.430;2023-04-01T12:42:40;98945.72;;;12.06;98.86
4576;BME280;2300;51.874;8.430;2023-04-01T12:45:30;98953.44;;;11.99;98.18
4576;BME280;2300;51.874;8.430;2023-04-01T12:48:10;98958.69;;;12.01;99.78
4576;BME280;2300;51.874;8.430;2023-04-01T12:51:07;98955.75;;;11.77;99.89
4576;BME280;2300;51.874;8.430;2023-04-01T12:56:41;98961.00;;;11.68;99.81
4576;BME280;2300;51.874;8.430;2023-04-01T12:59:36;98960.41;;;11.77;99.95
4576;BME280;2300;51.874;8.430;2023-04-01T13:02:12;98952.47;;;11.75;99.95
4576;BME280;2300;51.874;8.430;2023-04-01T13:04:55;98967.22;;;11.94;100.00
4576;BME280;2300;51.874;8.430;2023-04-01T13:07:39;98964.97;;;12.06;100.00
4576;BME280;2300;51.874;8.430;2023-04-01T13:10:20;98964.88;;;12.22;99.56
4576;BME280;2300;51.874;8.430;2023-04-01T13:13:04;98967.72;;;12.06;99.01
4576;BME280;2300;51.874;8.430;2023-04-01T13:15:37;98977.28;;;12.19;99.47
4576;BME280;2300;51.874;8.430;2023-04-01T13:18:16;98983.94;;;12.08;98.00
4576;BME280;2300;51.874;8.430;2023-04-01T13:20:53;98976.53;;;12.03;97.41
4576;BME280;2300;51.874;8.430;2023-04-01T13:23:33;98987.88;;;11.92;98.08
4576;BME280;2300;51.874;8.430;2023-04-01T13:26:13;98993.06;;;11.93;98.43
4576;BME280;2300;51.874;8.430;2023-04-01T13:28:48;98991.34;;;12.18;98.39
4576;BME280;2300;51.874;8.430;2023-04-01T13:31:26;98996.75;;;12.33;98.77
4576;BME280;2300;51.874;8.430;2023-04-01T13:34:02;98988.91;;;12.50;97.74
4576;BME280;2300;51.874;8.430;2023-04-01T13:36:40;98996.97;;;12.75;96.50
4576;BME280;2300;51.874;8.430;2023-04-01T13:39:26;98997.47;;;12.87;95.36
4576;BME280;2300;51.874;8.430;2023-04-01T13:42:08;98999.97;;;12.89;94.82
4576;BME280;2300;51.874;8.430;2023-04-01T13:44:42;98985.16;;;12.36;93.79
4576;BME280;2300;51.874;8.430;2023-04-01T13:47:48;99004.97;;;12.38;94.69
4576;BME280;2300;51.874;8.430;2023-04-01T13:50:28;99002.75;;;12.40;95.70
4576;BME280;2300;51.874;8.430;2023-04-01T13:53:19;99006.00;;;12.47;96.67
4576;BME280;2300;51.874;8.430;2023-04-01T13:55:55;99007.09;;;12.46;96.61
4576;BME280;2300;51.874;8.430;2023-04-01T13:58:55;99016.44;;;12.50;97.05
4576;BME280;2300;51.874;8.430;2023-04-01T14:01:31;99012.53;;;12.12;96.78
4576;BME280;2300;51.874;8.430;2023-04-01T14:04:27;99018.22;;;12.31;98.27
4576;BME280;2300;51.874;8.430;2023-04-01T14:07:02;99020.28;;;12.54;99.35
4576;BME280;2300;51.874;8.430;2023-04-01T14:12:29;99022.47;;;12.57;97.44
4576;BME280;2300;51.874;8.430;2023-04-01T14:15:14;99023.56;;;12.56;98.16
4576;BME280;2300;51.874;8.430;2023-04-01T14:17:54;99010.59;;;12.18;98.30
4576;BME280;2300;51.874;8.430;2023-04-01T14:20:28;99028.09;;;12.37;97.92
4576;BME280;2300;51.874;8.430;2023-04-01T14:23:07;99027.53;;;12.35;98.31
4576;BME280;2300;51.874;8.430;2023-04-01T14:25:52;99032.97;;;12.45;98.23
4576;BME280;2300;51.874;8.430;2023-04-01T14:28:29;99037.22;;;12.27;98.22
4576;BME280;2300;51.874;8.430;2023-04-01T14:31:18;99046.78;;;12.40;98.67
4576;BME280;2300;51.874;8.430;2023-04-01T14:33:57;99044.63;;;12.32;97.66
4576;BME280;2300;51.874;8.430;2023-04-01T14:36:34;99050.03;;;12.52;98.14
4576;BME280;2300;51.874;8.430;2023-04-01T14:39:19;99051.72;;;12.48;97.43
4576;BME280;2300;51.874;8.430;2023-04-01T14:41:57;99052.75;;;12.57;98.04
4576;BME280;2300;51.874;8.430;2023-04-01T14:44:44;99060.56;;;12.35;97.03
4576;BME280;2300;51.874;8.430;2023-04-01T14:47:42;99065.59;;;12.23;97.01